Time;durP1;ratioP1;P1;durP2;ratioP2;P2;SDS_P1;SDS_P2;PMS_P1;PMS_P2;Temp;Humidity;BMP_temperature;BMP_pressure;BME280_temperature;BME280_humidity;BME280_pressure;Samples;Min_cycle;Max_cycle;Signal;HPM_P1;HPM_P2
2022/01/20 00:01:22;;;;;;;3.87;2.62;;;-0.70;80.10;;;;;;1924814;74;21080;-45
2022/01/20 00:03:43;;;;;;;4.10;3.22;;;-0.70;79.60;;;;;;1923374;74;21104;-44
2022/01/20 00:28:19;;;;;;;4.40;3.98;;;-0.60;79.30;;;;;;1924936;74;21034;-44
2022/01/20 00:31:03;;;;;;;8.08;4.87;;;-0.50;80.10;;;;;;1924720;74;21031;-44
2022/01/20 00:33:40;;;;;;;4.95;4.45;;;-0.50;79.50;;;;;;1923175;74;21011;-44
2022/01/20 00:38:42;;;;;;;8.77;4.70;;;-0.40;81.40;;;;;;1925039;74;21034;-43
2022/01/20 00:41:15;;;;;;;6.42;4.75;;;-0.30;80.40;;;;;;1924918;74;21477;-44
2022/01/20 00:43:46;;;;;;;6.17;4.85;;;-0.20;80.80;;;;;;1924752;74;21018;-44
2022/01/20 00:46:15;;;;;;;6.55;3.83;;;-0.10;80.50;;;;;;1924694;74;21018;-44
2022/01/20 00:48:44;;;;;;;6.90;4.90;;;-0.20;78.80;;;;;;1924698;74;21101;-44
2022/01/20 00:51:14;;;;;;;6.78;4.33;;;-0.20;79.50;;;;;;1924763;74;21031;-45
2022/01/20 00:53:44;;;;;;;4.78;4.28;;;-0.20;80.00;;;;;;1911588;74;21039;-44
2022/01/20 00:56:14;;;;;;;5.47;3.83;;;-0.20;80.30;;;;;;1905294;75;21023;-43
2022/01/20 00:58:44;;;;;;;4.30;3.72;;;-0.10;80.40;;;;;;1905369;74;21086;-44
2022/01/20 01:01:13;;;;;;;4.10;3.70;;;-0.10;78.90;;;;;;1905302;75;20992;-44
2022/01/20 01:03:43;;;;;;;5.80;3.45;;;-0.20;78.10;;;;;;1905339;75;21073;-44
2022/01/20 01:06:34;;;;;;;6.50;2.58;;;-0.40;76.50;;;;;;1905402;75;21020;-44
2022/01/20 01:08:49;;;;;;;5.55;4.12;;;-0.40;77.70;;;;;;1903950;74;21051;-44
2022/01/20 01:11:21;;;;;;;8.38;5.83;;;-0.50;78.30;;;;;;1905428;74;21062;-44
2022/01/20 01:13:51;;;;;;;2.20;2.08;;;-0.50;79.50;;;;;;1905376;75;21047;-44
2022/01/20 01:16:24;;;;;;;4.83;3.70;;;-0.50;79.00;;;;;;1905314;75;21004;-43
2022/01/20 01:21:51;;;;;;;4.85;2.87;;;-0.50;78.30;;;;;;1905420;75;21089;-44
2022/01/20 01:24:15;;;;;;;5.80;4.35;;;-0.60;78.30;;;;;;1904908;74;21032;-44
2022/01/20 01:26:45;;;;;;;5.22;3.52;;;-0.60;78.60;;;;;;1905319;75;21062;-44
2022/01/20 01:29:34;;;;;;;3.67;3.27;;;-0.70;78.20;;;;;;1905473;74;20999;-44
2022/01/20 01:31:45;;;;;;;4.60;3.80;;;-0.60;79.20;;;;;;1903561;74;21088;-44
2022/01/20 01:34:15;;;;;;;3.65;3.25;;;-0.70;79.50;;;;;;1905423;74;21070;-44
2022/01/20 01:36:51;;;;;;;3.27;2.62;;;-0.60;78.40;;;;;;1905398;74;21078;-44
2022/01/20 01:39:18;;;;;;;4.10;3.27;;;-0.60;78.20;;;;;;1905260;74;21180;-44
2022/01/20 01:41:48;;;;;;;4.83;3.70;;;-0.70;78.40;;;;;;1905352;75;21089;-45
2022/01/20 01:44:24;;;;;;;3.33;3.02;;;-0.70;78.70;;;;;;1905420;75;20991;-44
2022/01/20 01:46:53;;;;;;;6.62;3.90;;;-0.70;78.30;;;;;;1905476;75;21081;-43
2022/01/20 01:49:22;;;;;;;3.52;2.90;;;-0.80;78.40;;;;;;1905303;75;21457;-45
2022/01/20 01:51:53;;;;;;;2.83;2.62;;;-0.70;78.80;;;;;;1905356;75;21032;-44
2022/01/20 01:54:22;;;;;;;4.87;4.22;;;-0.80;78.60;;;;;;1916753;74;21050;-44
2022/01/20 01:56:52;;;;;;;4.40;3.30;;;-0.80;79.10;;;;;;1924767;74;21081;-44
2022/01/20 01:59:23;;;;;;;4.45;3.05;;;-0.70;79.30;;;;;;1924154;74;21155;-44
2022/01/20 02:01:54;;;;;;;5.55;3.37;;;-0.70;78.60;;;;;;1923795;74;21042;-44
2022/01/20 02:04:25;;;;;;;1.52;1.42;;;-0.70;78.40;;;;;;1924691;74;21102;-44
2022/01/20 02:07:47;;;;;;;2.98;2.62;;;-0.70;77.30;;;;;;1920580;74;21026;-44
2022/01/20 02:18:36;;;;;;;3.05;2.70;;;-0.90;77.10;;;;;;1924839;74;21096;-44
2022/01/20 02:20:56;;;;;;;5.30;3.60;;;-0.90;77.00;;;;;;1923242;74;21070;-44
2022/01/20 02:23:26;;;;;;;4.58;4.03;;;-0.90;77.70;;;;;;1924665;74;21102;-43
2022/01/20 02:25:56;;;;;;;7.25;3.20;;;-1.00;78.20;;;;;;1924847;74;21019;-44
2022/01/20 02:28:27;;;;;;;6.53;3.72;;;-1.00;79.40;;;;;;1924754;74;21003;-44
2022/01/20 02:30:56;;;;;;;4.62;2.70;;;-0.90;78.70;;;;;;1924661;74;21076;-44
2022/01/20 02:33:29;;;;;;;19.82;11.35;;;-0.90;78.60;;;;;;1924603;74;21013;-43
2022/01/20 02:36:05;;;;;;;19.10;9.00;;;-0.90;79.10;;;;;;1924621;74;21467;-44
2022/01/20 02:38:57;;;;;;;8.05;4.75;;;-0.80;79.50;;;;;;1924688;74;21089;-44
2022/01/20 02:46:54;;;;;;;7.17;4.58;;;-0.80;76.00;;;;;;1904035;74;21139;-44
2022/01/20 02:49:23;;;;;;;14.13;10.95;;;-0.80;77.00;;;;;;1924730;74;21030;-44
2022/01/20 02:51:58;;;;;;;4.90;3.08;;;-0.80;77.90;;;;;;1924609;74;21037;-44
2022/01/20 02:54:27;;;;;;;5.50;4.43;;;-0.80;77.80;;;;;;1924931;74;21124;-44
2022/01/20 02:56:57;;;;;;;4.33;3.85;;;-0.80;77.80;;;;;;1924574;74;21024;-44
2022/01/20 02:59:27;;;;;;;8.70;3.77;;;-0.80;79.20;;;;;;1924672;74;21073;-43
2022/01/20 03:01:57;;;;;;;3.98;2.90;;;-0.70;79.50;;;;;;1924724;74;21104;-44
2022/01/20 03:04:26;;;;;;;5.05;4.08;;;-0.60;78.90;;;;;;1924730;74;21002;-44
2022/01/20 03:06:58;;;;;;;5.80;4.20;;;-0.50;79.20;;;;;;1924537;74;21030;-44
2022/01/20 03:09:28;;;;;;;7.95;4.08;;;-0.40;78.50;;;;;;1924707;74;21031;-43
2022/01/20 03:11:57;;;;;;;4.62;3.75;;;-0.40;78.40;;;;;;1924667;74;21046;-44
2022/01/20 03:14:27;;;;;;;5.20;3.98;;;-0.40;78.80;;;;;;1924598;74;21089;-44
2022/01/20 03:16:57;;;;;;;14.87;9.33;;;-0.40;76.80;;;;;;1924699;74;21035;-45
2022/01/20 03:19:26;;;;;;;4.97;4.30;;;-0.40;78.50;;;;;;1924586;74;20994;-45
2022/01/20 03:21:55;;;;;;;6.58;4.45;;;-0.40;76.20;;;;;;1924600;74;21099;-44
2022/01/20 03:24:25;;;;;;;5.53;4.50;;;-0.40;77.30;;;;;;1924626;74;21062;-44
2022/01/20 03:26:54;;;;;;;7.37;4.25;;;-0.50;76.40;;;;;;1924625;74;21076;-45
2022/01/20 03:29:24;;;;;;;9.25;4.05;;;-0.50;75.80;;;;;;1924645;74;21065;-44
2022/01/20 03:31:53;;;;;;;3.65;3.35;;;-0.60;77.20;;;;;;1924500;74;21072;-44
2022/01/20 03:34:23;;;;;;;5.17;3.72;;;-0.60;77.60;;;;;;1924704;74;20998;-44
2022/01/20 03:36:54;;;;;;;7.22;4.80;;;-0.60;76.70;;;;;;1924300;74;21161;-44
2022/01/20 03:39:25;;;;;;;6.15;4.80;;;-0.60;77.20;;;;;;1923160;74;21117;-43
2022/01/20 03:41:54;;;;;;;6.33;4.72;;;-0.60;78.00;;;;;;1924553;74;21018;-45
2022/01/20 03:44:28;;;;;;;6.00;4.15;;;-0.50;78.90;;;;;;1924281;74;21079;-45
2022/01/20 03:47:02;;;;;;;7.30;5.55;;;-0.40;79.00;;;;;;1924622;74;21125;-44
2022/01/20 03:49:52;;;;;;;12.88;10.98;;;-0.40;78.20;;;;;;1924796;74;21038;-45
2022/01/20 03:52:08;;;;;;;6.08;4.78;;;-0.30;78.00;;;;;;1921786;74;21101;-44
2022/01/20 03:54:38;;;;;;;4.40;3.75;;;-0.30;78.70;;;;;;1924768;74;21030;-44
2022/01/20 03:57:21;;;;;;;12.78;3.65;;;-0.30;77.00;;;;;;1924671;74;21066;-44
2022/01/20 04:00:09;;;;;;;3.37;3.02;;;-0.40;75.80;;;;;;1924654;74;21059;-44
2022/01/20 04:02:43;;;;;;;6.92;3.70;;;-0.50;76.70;;;;;;1925112;74;21422;-44
2022/01/20 04:05:14;;;;;;;3.60;2.55;;;-0.50;77.50;;;;;;1918248;74;21084;-43
2022/01/20 04:07:44;;;;;;;4.70;3.17;;;-0.60;75.60;;;;;;1924508;73;21555;-44
2022/01/20 04:10:14;;;;;;;5.42;3.50;;;-0.60;76.80;;;;;;1924798;74;21143;-44
2022/01/20 04:12:43;;;;;;;4.25;3.65;;;-0.70;76.40;;;;;;1924799;74;20995;-44
2022/01/20 04:15:16;;;;;;;8.98;5.80;;;-0.70;77.30;;;;;;1924813;74;21116;-43
2022/01/20 04:17:50;;;;;;;3.33;3.02;;;-0.70;77.70;;;;;;1924892;74;21046;-45
2022/01/20 04:20:16;;;;;;;8.65;4.65;;;-0.70;76.90;;;;;;1924072;74;21081;-44
2022/01/20 04:22:45;;;;;;;7.65;4.92;;;-0.70;77.00;;;;;;1924725;74;21082;-45
2022/01/20 04:25:15;;;;;;;5.95;4.30;;;-0.80;77.60;;;;;;1924850;74;21090;-44
2022/01/20 04:27:44;;;;;;;4.95;4.25;;;-0.70;76.70;;;;;;1924760;74;21170;-44
2022/01/20 04:30:13;;;;;;;3.02;2.55;;;-0.80;77.20;;;;;;1924810;74;21457;-46
2022/01/20 04:32:42;;;;;;;6.58;3.77;;;-0.80;76.50;;;;;;1924677;74;21092;-45
2022/01/20 04:35:12;;;;;;;6.20;4.70;;;-0.80;76.80;;;;;;1924651;74;20998;-45
2022/01/20 04:37:41;;;;;;;4.62;3.90;;;-0.80;77.50;;;;;;1924719;74;21084;-43
2022/01/20 04:40:11;;;;;;;6.95;4.87;;;-0.80;77.90;;;;;;1924731;74;21100;-46
2022/01/20 04:42:43;;;;;;;4.97;4.08;;;-0.70;79.00;;;;;;1924771;74;21027;-44
2022/01/20 04:45:15;;;;;;;5.58;3.60;;;-0.70;77.70;;;;;;1924706;74;21530;-44
2022/01/20 04:47:54;;;;;;;4.60;3.17;;;-0.60;78.10;;;;;;1924627;74;21050;-46
2022/01/20 04:58:39;;;;;;;8.23;6.37;;;-0.60;78.40;;;;;;1924724;74;21077;-44
2022/01/20 05:01:09;;;;;;;5.28;4.37;;;-0.50;79.10;;;;;;1924672;74;21092;-45
2022/01/20 05:03:40;;;;;;;5.05;4.55;;;-0.40;77.60;;;;;;1922281;74;21077;-44
2022/01/20 05:06:13;;;;;;;7.25;4.83;;;-0.40;75.00;;;;;;1923115;74;21494;-44
2022/01/20 05:08:42;;;;;;;6.95;4.20;;;-0.40;76.30;;;;;;1924948;74;21019;-44
2022/01/20 05:11:13;;;;;;;8.10;5.12;;;-0.40;76.50;;;;;;1924694;74;21022;-44
2022/01/20 05:13:42;;;;;;;5.37;4.60;;;-0.50;78.00;;;;;;1924691;74;21171;-44
2022/01/20 05:16:13;;;;;;;7.85;5.35;;;-0.40;77.70;;;;;;1924864;74;21076;-44
2022/01/20 05:18:44;;;;;;;7.42;5.35;;;-0.40;77.10;;;;;;1924698;74;21120;-44
2022/01/20 05:21:13;;;;;;;9.40;5.75;;;-0.40;77.50;;;;;;1924683;74;21084;-45
2022/01/20 05:23:43;;;;;;;9.28;6.15;;;-0.40;77.30;;;;;;1924877;74;21043;-44
2022/01/20 05:26:14;;;;;;;11.83;5.90;;;-0.40;76.30;;;;;;1924544;73;21018;-43
2022/01/20 05:28:44;;;;;;;9.00;5.60;;;-0.40;75.80;;;;;;1924713;74;20990;-43
2022/01/20 05:31:13;;;;;;;10.45;6.83;;;-0.40;76.90;;;;;;1924819;74;21080;-44
2022/01/20 05:33:53;;;;;;;10.72;6.55;;;-0.40;77.20;;;;;;1924757;74;21043;-45
2022/01/20 05:36:23;;;;;;;13.10;7.87;;;-0.40;77.90;;;;;;1924673;74;21076;-46
2022/01/20 05:38:52;;;;;;;11.63;7.50;;;-0.30;77.80;;;;;;1924689;74;21042;-45
2022/01/20 05:41:21;;;;;;;14.15;7.00;;;-0.30;78.00;;;;;;1924728;74;21080;-44
2022/01/20 05:43:52;;;;;;;10.33;6.53;;;-0.20;78.00;;;;;;1924809;74;21042;-46
2022/01/20 05:46:24;;;;;;;13.65;7.53;;;-0.20;77.60;;;;;;1924786;74;21018;-45
2022/01/20 05:48:58;;;;;;;11.80;7.28;;;-0.10;78.00;;;;;;1924697;74;21502;-45
2022/01/20 05:51:27;;;;;;;11.53;6.95;;;-0.10;77.60;;;;;;1923102;74;21093;-45
2022/01/20 05:53:58;;;;;;;15.25;8.43;;;-0.10;76.50;;;;;;1924520;73;21046;-46
2022/01/20 05:56:29;;;;;;;10.45;7.58;;;-0.10;77.50;;;;;;1924560;73;21098;-43
2022/01/20 05:58:59;;;;;;;9.08;6.97;;;-0.10;75.90;;;;;;1924834;74;21023;-45
2022/01/20 06:01:32;;;;;;;13.28;8.53;;;-0.20;75.20;;;;;;1924682;74;21015;-44
2022/01/20 06:04:01;;;;;;;10.05;6.30;;;-0.30;75.00;;;;;;1924751;74;21469;-44
2022/01/20 06:06:30;;;;;;;11.25;7.78;;;-0.30;76.50;;;;;;1924812;74;21022;-44
2022/01/20 06:08:59;;;;;;;9.38;6.12;;;-0.30;76.50;;;;;;1924756;74;21096;-44
2022/01/20 06:11:30;;;;;;;14.80;8.65;;;-0.30;76.40;;;;;;1924689;74;21151;-45
2022/01/20 06:13:59;;;;;;;14.20;8.58;;;-0.30;75.60;;;;;;1924646;74;20998;-45
2022/01/20 06:16:28;;;;;;;14.78;9.95;;;-0.30;76.50;;;;;;1924700;74;21023;-45
2022/01/20 06:18:58;;;;;;;11.45;7.70;;;-0.30;75.90;;;;;;1924831;74;21050;-44
2022/01/20 06:21:27;;;;;;;8.28;6.10;;;-0.30;74.90;;;;;;1924894;74;21002;-45
2022/01/20 06:23:57;;;;;;;13.65;8.93;;;-0.30;76.60;;;;;;1924742;74;21101;-44
2022/01/20 06:26:26;;;;;;;10.40;7.03;;;-0.30;75.70;;;;;;1924750;74;21139;-44
2022/01/20 06:28:56;;;;;;;11.97;7.67;;;-0.30;75.00;;;;;;1924804;74;21074;-44
2022/01/20 06:31:26;;;;;;;15.43;8.23;;;-0.30;75.50;;;;;;1924827;74;21023;-44
2022/01/20 06:33:55;;;;;;;11.25;8.88;;;-0.30;75.40;;;;;;1924790;74;21129;-45
2022/01/20 06:36:25;;;;;;;12.13;6.35;;;-0.30;75.30;;;;;;1924698;74;21088;-44
2022/01/20 06:38:54;;;;;;;6.05;4.58;;;-0.30;74.70;;;;;;1924803;74;21023;-44
2022/01/20 06:41:24;;;;;;;7.85;6.47;;;-0.30;74.60;;;;;;1924705;74;21089;-44
2022/01/20 06:43:53;;;;;;;16.62;9.33;;;-0.30;74.20;;;;;;1924728;74;21023;-44
2022/01/20 06:46:22;;;;;;;7.45;4.92;;;-0.30;75.00;;;;;;1924901;74;20999;-45
2022/01/20 06:48:56;;;;;;;8.77;5.30;;;-0.30;73.80;;;;;;1924520;74;21121;-43
2022/01/20 06:51:28;;;;;;;18.65;9.93;;;-0.40;74.80;;;;;;1924140;74;21183;-44
2022/01/20 06:53:58;;;;;;;13.55;8.30;;;-0.30;75.10;;;;;;1924752;74;21078;-44
2022/01/20 06:56:27;;;;;;;8.53;5.55;;;-0.40;76.30;;;;;;1924719;74;21108;-44
2022/01/20 06:58:57;;;;;;;11.83;6.85;;;-0.30;75.20;;;;;;1924800;74;21109;-45
2022/01/20 07:01:26;;;;;;;7.70;5.53;;;-0.30;76.20;;;;;;1924934;74;21088;-44
2022/01/20 07:03:56;;;;;;;9.45;7.35;;;-0.30;73.80;;;;;;1924830;74;20998;-44
2022/01/20 07:06:26;;;;;;;12.53;7.72;;;-0.20;74.30;;;;;;1924827;74;20999;-45
2022/01/20 07:09:14;;;;;;;14.15;9.03;;;-0.20;74.90;;;;;;1924716;74;21023;-44
2022/01/20 07:11:43;;;;;;;11.93;6.78;;;-0.10;75.90;;;;;;1924858;74;21082;-44
2022/01/20 07:14:13;;;;;;;10.20;7.40;;;-0.10;75.50;;;;;;1924886;74;21018;-44
2022/01/20 07:16:42;;;;;;;16.37;9.93;;;-0.10;76.20;;;;;;1924703;74;21019;-45
2022/01/20 07:19:11;;;;;;;11.73;7.15;;;0.00;75.70;;;;;;1924679;74;21076;-44
2022/01/20 07:21:41;;;;;;;28.15;14.45;;;0.10;75.90;;;;;;1924639;74;21092;-44
2022/01/20 07:24:12;;;;;;;10.35;7.80;;;0.10;75.20;;;;;;1924698;73;21080;-45
2022/01/20 07:26:42;;;;;;;10.68;6.65;;;0.20;75.80;;;;;;1924778;74;21019;-44
2022/01/20 07:29:13;;;;;;;9.00;5.70;;;0.20;75.80;;;;;;1923180;74;21453;-45
2022/01/20 07:31:42;;;;;;;15.98;9.43;;;0.20;75.20;;;;;;1924870;74;21015;-45
2022/01/20 07:34:12;;;;;;;8.08;6.17;;;0.20;73.80;;;;;;1924782;74;21026;-45
2022/01/20 07:36:42;;;;;;;9.50;6.15;;;0.20;72.70;;;;;;1924836;74;21092;-44
2022/01/20 07:39:11;;;;;;;10.32;7.35;;;0.20;74.00;;;;;;1924749;74;21073;-44
2022/01/20 07:41:40;;;;;;;12.13;7.95;;;0.20;74.20;;;;;;1924718;74;21023;-44
2022/01/20 07:44:11;;;;;;;11.00;7.97;;;0.20;75.50;;;;;;1921750;74;21038;-44
2022/01/20 07:46:45;;;;;;;8.83;7.07;;;0.30;74.50;;;;;;1922623;74;21124;-45
2022/01/20 07:49:15;;;;;;;15.63;8.60;;;0.30;74.60;;;;;;1924847;74;21023;-45
2022/01/20 07:51:45;;;;;;;8.98;7.00;;;0.30;75.50;;;;;;1924785;74;21100;-44
2022/01/20 07:54:14;;;;;;;9.55;6.95;;;0.40;75.00;;;;;;1924570;74;21034;-44
2022/01/20 07:56:44;;;;;;;9.28;6.12;;;0.40;74.70;;;;;;1923130;74;21019;-44
2022/01/20 07:59:13;;;;;;;7.67;5.72;;;0.50;72.60;;;;;;1905401;74;21047;-46
2022/01/20 08:01:44;;;;;;;9.23;6.60;;;0.50;74.30;;;;;;1905388;75;21089;-44
2022/01/20 08:04:14;;;;;;;10.55;7.85;;;0.60;75.40;;;;;;1905425;74;21035;-44
2022/01/20 08:06:44;;;;;;;8.85;6.30;;;0.70;76.10;;;;;;1905514;75;21020;-45
2022/01/20 08:09:15;;;;;;;9.30;7.08;;;0.80;75.70;;;;;;1903983;74;21079;-44
2022/01/20 08:11:49;;;;;;;12.90;7.50;;;0.90;75.80;;;;;;1887785;75;21064;-44
2022/01/20 08:14:28;;;;;;;13.03;8.13;;;1.00;75.20;;;;;;1893372;75;21058;-44
2022/01/20 08:16:57;;;;;;;9.68;6.47;;;1.10;75.20;;;;;;1905404;75;21039;-44
2022/01/20 08:19:27;;;;;;;13.08;7.87;;;1.10;73.50;;;;;;1905357;75;21008;-44
2022/01/20 08:21:56;;;;;;;9.93;7.62;;;1.10;73.60;;;;;;1905550;75;21019;-44
2022/01/20 08:24:25;;;;;;;10.68;7.97;;;1.10;72.40;;;;;;1905457;74;21200;-44
2022/01/20 08:26:55;;;;;;;6.45;5.50;;;1.00;73.10;;;;;;1905509;75;20999;-44
2022/01/20 08:29:25;;;;;;;7.47;5.50;;;1.00;71.40;;;;;;1905540;75;21089;-44
2022/01/20 08:31:55;;;;;;;8.00;6.25;;;1.00;70.70;;;;;;1905600;74;21160;-44
2022/01/20 08:34:26;;;;;;;10.88;7.50;;;0.90;71.90;;;;;;1904279;74;21079;-44
2022/01/20 08:37:05;;;;;;;10.20;7.15;;;1.00;74.00;;;;;;1837331;78;21057;-45
2022/01/20 08:39:39;;;;;;;9.13;7.85;;;1.00;74.30;;;;;;1905535;75;21023;-44
2022/01/20 08:42:06;;;;;;;8.70;4.85;;;1.10;74.20;;;;;;1905330;74;21180;-45
2022/01/20 08:44:36;;;;;;;11.28;7.60;;;1.20;72.30;;;;;;1905503;75;21020;-45
2022/01/20 08:47:16;;;;;;;13.58;8.00;;;1.20;72.90;;;;;;1905536;75;21019;-45
2022/01/20 08:49:38;;;;;;;9.73;6.37;;;1.20;74.00;;;;;;1904060;74;21063;-45
2022/01/20 08:52:07;;;;;;;6.85;4.62;;;1.30;71.50;;;;;;1905464;74;21011;-44
2022/01/20 08:54:38;;;;;;;9.55;6.37;;;1.30;72.70;;;;;;1904762;74;21119;-45
2022/01/20 08:57:09;;;;;;;11.78;6.70;;;1.30;73.40;;;;;;1904912;74;21052;-45
2022/01/20 08:59:42;;;;;;;9.95;7.35;;;1.30;74.20;;;;;;1912199;74;21540;-45
2022/01/20 09:02:12;;;;;;;11.63;7.00;;;1.30;75.00;;;;;;1905421;74;21035;-44
2022/01/20 09:04:42;;;;;;;12.85;7.12;;;1.30;74.20;;;;;;1905333;75;21085;-45
2022/01/20 09:07:25;;;;;;;9.05;6.87;;;1.40;75.30;;;;;;1904205;74;21059;-45
2022/01/20 09:09:56;;;;;;;9.95;6.17;;;1.40;73.20;;;;;;1905331;75;21085;-45
2022/01/20 09:15:28;;;;;;;12.85;8.85;;;1.60;75.70;;;;;;1905289;75;21079;-45
2022/01/20 09:18:01;;;;;;;10.00;7.70;;;1.70;75.30;;;;;;1905054;74;21107;-44
2022/01/20 09:20:32;;;;;;;7.80;5.83;;;1.80;74.60;;;;;;1905263;74;20992;-44
2022/01/20 09:23:02;;;;;;;8.15;6.05;;;1.80;72.40;;;;;;1905420;75;21153;-44
2022/01/20 09:25:31;;;;;;;12.70;8.43;;;1.80;71.60;;;;;;1905384;74;21019;-44
2022/01/20 09:28:02;;;;;;;9.30;6.42;;;1.80;72.10;;;;;;1905317;74;21102;-45
2022/01/20 09:30:32;;;;;;;14.65;7.85;;;1.70;72.50;;;;;;1905219;75;21019;-44
2022/01/20 09:33:14;;;;;;;11.55;7.12;;;1.80;74.30;;;;;;1905303;74;21044;-44
2022/01/20 09:35:43;;;;;;;11.65;7.78;;;1.90;75.00;;;;;;1905230;74;21003;-45
2022/01/20 09:38:13;;;;;;;7.42;5.12;;;2.10;74.20;;;;;;1905348;75;21093;-44
2022/01/20 09:40:43;;;;;;;9.93;7.53;;;2.20;70.80;;;;;;1905269;75;21003;-44
2022/01/20 09:43:17;;;;;;;6.85;5.75;;;2.20;70.30;;;;;;1905408;75;21023;-45
2022/01/20 09:45:53;;;;;;;12.00;8.30;;;2.20;70.50;;;;;;1905315;75;21004;-44
2022/01/20 09:48:27;;;;;;;6.20;4.58;;;2.10;70.50;;;;;;1905450;74;21090;-44
2022/01/20 09:51:16;;;;;;;8.33;5.70;;;2.00;70.00;;;;;;1904928;74;21150;-44
2022/01/20 09:53:59;;;;;;;3.72;3.22;;;1.90;68.70;;;;;;1904659;74;21063;-44
2022/01/20 09:56:34;;;;;;;7.90;3.67;;;1.90;66.40;;;;;;1898863;75;21060;-45
2022/01/20 09:59:04;;;;;;;4.05;3.20;;;1.90;65.50;;;;;;1905223;74;21039;-44
2022/01/20 10:01:46;;;;;;;6.35;4.50;;;1.80;62.70;;;;;;1917158;74;21050;-44
2022/01/20 10:04:29;;;;;;;3.95;3.08;;;1.70;67.30;;;;;;1920974;74;21078;-45
2022/01/20 10:07:04;;;;;;;9.20;5.53;;;1.70;64.20;;;;;;1924728;74;21042;-46
2022/01/20 10:09:39;;;;;;;7.55;5.17;;;1.70;67.20;;;;;;1924448;74;21136;-44
2022/01/20 10:12:12;;;;;;;6.67;5.03;;;1.70;65.70;;;;;;1918147;74;21069;-45
2022/01/20 10:14:50;;;;;;;8.85;5.53;;;1.70;68.10;;;;;;1922893;74;21129;-44
2022/01/20 10:17:38;;;;;;;7.37;6.00;;;1.80;68.40;;;;;;1924669;74;21562;-45
2022/01/20 10:20:09;;;;;;;3.85;3.50;;;1.80;66.80;;;;;;1924661;74;21084;-44
2022/01/20 10:22:42;;;;;;;5.58;3.77;;;1.90;61.30;;;;;;1923266;74;21136;-44
2022/01/20 10:25:17;;;;;;;5.75;4.30;;;1.90;64.10;;;;;;1923071;74;21059;-44
2022/01/20 10:27:57;;;;;;;7.28;6.03;;;1.90;65.90;;;;;;1922922;74;21054;-44
2022/01/20 10:30:28;;;;;;;5.17;4.35;;;1.90;66.60;;;;;;1924848;74;21456;-44
2022/01/20 10:33:00;;;;;;;6.97;3.98;;;2.00;66.30;;;;;;1924804;74;21151;-44
2022/01/20 10:35:34;;;;;;;8.48;4.50;;;2.10;67.40;;;;;;1923873;74;21501;-44
2022/01/20 10:38:14;;;;;;;7.35;4.97;;;2.10;66.10;;;;;;1924244;74;21056;-45
2022/01/20 10:40:56;;;;;;;6.60;3.95;;;2.10;65.30;;;;;;1924156;74;21074;-45
2022/01/20 10:43:36;;;;;;;10.50;4.80;;;2.10;64.60;;;;;;1924716;73;21154;-45
2022/01/20 10:46:06;;;;;;;5.40;3.72;;;2.20;66.90;;;;;;1921605;74;21066;-44
2022/01/20 10:48:36;;;;;;;3.27;2.58;;;2.20;61.60;;;;;;1923238;74;21023;-45
2022/01/20 10:51:19;;;;;;;5.90;3.15;;;2.20;58.60;;;;;;1924954;74;21011;-45
2022/01/20 10:54:01;;;;;;;7.35;4.20;;;2.20;61.20;;;;;;1924053;74;21091;-45
2022/01/20 10:56:33;;;;;;;4.35;2.10;;;2.20;60.00;;;;;;1924448;74;21476;-44
2022/01/20 10:59:08;;;;;;;6.62;3.33;;;2.20;61.60;;;;;;1924370;74;21477;-44
2022/01/20 11:01:38;;;;;;;7.30;3.22;;;2.20;63.00;;;;;;1917403;74;21120;-44
2022/01/20 11:04:09;;;;;;;2.95;2.12;;;2.20;62.10;;;;;;1892461;75;21020;-44
2022/01/20 11:06:39;;;;;;;2.98;2.10;;;2.20;56.90;;;;;;1905365;74;21079;-44
2022/01/20 11:09:28;;;;;;;2.92;2.02;;;2.10;54.60;;;;;;1905435;74;21045;-44
2022/01/20 11:11:59;;;;;;;1.95;1.72;;;2.10;57.50;;;;;;1902700;75;21065;-45
2022/01/20 11:14:39;;;;;;;4.47;2.42;;;2.00;53.20;;;;;;1904334;74;21188;-44
2022/01/20 11:17:08;;;;;;;5.05;2.95;;;1.90;56.60;;;;;;1905360;74;20995;-45
2022/01/20 11:19:38;;;;;;;5.80;2.58;;;1.80;56.10;;;;;;1905455;75;21024;-44
2022/01/20 11:22:11;;;;;;;4.00;2.77;;;1.90;57.50;;;;;;1905389;74;21055;-45
2022/01/20 11:24:43;;;;;;;10.38;2.90;;;1.80;55.20;;;;;;1905652;75;21034;-44
2022/01/20 11:27:40;;;;;;;3.10;2.30;;;1.80;57.00;;;;;;1905288;74;21071;-45
2022/01/20 11:30:24;;;;;;;5.62;2.47;;;1.70;56.20;;;;;;1843043;74;21011;-44
2022/01/20 11:33:05;;;;;;;1.85;1.75;;;1.70;55.00;;;;;;1864898;74;21035;-44
2022/01/20 11:35:41;;;;;;;1.30;1.20;;;1.60;55.80;;;;;;1904934;75;21119;-44
2022/01/20 11:38:13;;;;;;;3.37;1.77;;;1.60;56.00;;;;;;1905468;75;21125;-44
2022/01/20 11:40:54;;;;;;;4.92;3.15;;;1.60;57.00;;;;;;1905443;75;20995;-44
2022/01/20 11:43:44;;;;;;;2.65;2.17;;;1.60;59.60;;;;;;1905497;75;21414;-44
2022/01/20 11:46:16;;;;;;;4.90;3.05;;;1.60;58.00;;;;;;1904861;74;21105;-44
2022/01/20 11:48:58;;;;;;;2.15;1.95;;;1.60;59.00;;;;;;1905448;75;21100;-44
2022/01/20 11:51:30;;;;;;;4.70;2.40;;;1.60;58.60;;;;;;1905492;75;21023;-44
2022/01/20 11:54:05;;;;;;;1.20;1.15;;;1.60;58.70;;;;;;1905402;74;21047;-43
2022/01/20 11:56:37;;;;;;;8.53;2.90;;;1.60;52.00;;;;;;1905471;75;21015;-44
2022/01/20 11:59:08;;;;;;;3.37;2.58;;;1.60;57.60;;;;;;1904699;74;21527;-44
2022/01/20 12:01:55;;;;;;;4.85;1.87;;;1.60;56.10;;;;;;1907897;74;21093;-44
2022/01/20 12:04:35;;;;;;;5.62;2.92;;;1.60;54.30;;;;;;1924799;74;21065;-43
2022/01/20 12:07:09;;;;;;;6.83;2.37;;;1.60;52.40;;;;;;1924413;74;21067;-44
2022/01/20 12:09:41;;;;;;;5.90;3.12;;;1.60;57.20;;;;;;1924808;74;21546;-44
2022/01/20 12:12:26;;;;;;;6.72;3.22;;;1.60;57.10;;;;;;1924737;74;21062;-43
2022/01/20 12:14:55;;;;;;;5.83;2.60;;;1.60;58.40;;;;;;1924677;74;20991;-44
2022/01/20 12:17:24;;;;;;;5.58;3.20;;;1.70;56.80;;;;;;1924879;74;20991;-44
2022/01/20 12:19:57;;;;;;;6.25;2.55;;;1.70;58.90;;;;;;1924685;74;21105;-44
2022/01/20 12:22:26;;;;;;;5.20;3.30;;;1.70;58.90;;;;;;1924790;74;21072;-44
2022/01/20 12:24:57;;;;;;;4.80;3.27;;;1.80;60.80;;;;;;1924733;74;21019;-44
2022/01/20 12:27:28;;;;;;;6.10;2.87;;;1.90;61.60;;;;;;1924912;74;21031;-44
2022/01/20 12:29:58;;;;;;;4.87;2.70;;;2.00;59.30;;;;;;1924760;74;21413;-44
2022/01/20 12:32:27;;;;;;;4.95;3.35;;;2.10;60.70;;;;;;1924855;74;21014;-44
2022/01/20 12:35:01;;;;;;;5.25;3.30;;;2.10;60.40;;;;;;1924739;74;21038;-44
2022/01/20 12:37:39;;;;;;;7.17;3.25;;;2.10;60.50;;;;;;1924901;74;21081;-44
2022/01/20 12:40:11;;;;;;;7.05;2.83;;;2.10;60.80;;;;;;1924823;74;21034;-44
2022/01/20 12:42:42;;;;;;;5.55;2.45;;;2.10;60.40;;;;;;1923770;74;21528;-45
2022/01/20 12:47:59;;;;;;;4.85;3.33;;;2.20;62.00;;;;;;1924730;74;21105;-44
2022/01/20 12:50:29;;;;;;;7.67;4.17;;;2.30;63.00;;;;;;1924785;74;21089;-44
2022/01/20 12:52:58;;;;;;;4.20;3.00;;;2.40;63.00;;;;;;1924804;74;21023;-43
2022/01/20 12:55:28;;;;;;;2.75;2.02;;;2.60;64.00;;;;;;1924834;74;21042;-44
2022/01/20 12:58:00;;;;;;;3.47;2.10;;;2.70;58.90;;;;;;1924669;74;21014;-44
2022/01/20 13:00:30;;;;;;;4.58;2.45;;;2.70;59.30;;;;;;1924752;74;21081;-44
2022/01/20 13:02:59;;;;;;;2.10;1.70;;;2.70;59.30;;;;;;1924623;74;21027;-45
2022/01/20 13:05:29;;;;;;;4.80;2.80;;;2.70;57.10;;;;;;1924863;74;21076;-44
2022/01/20 13:08:00;;;;;;;3.17;2.02;;;2.70;59.30;;;;;;1924719;74;21106;-45
2022/01/20 13:10:34;;;;;;;2.35;1.95;;;2.70;60.90;;;;;;1924845;74;21010;-44
2022/01/20 13:13:05;;;;;;;3.20;1.95;;;2.70;59.30;;;;;;1924879;74;21038;-44
2022/01/20 13:15:35;;;;;;;4.00;2.42;;;2.70;58.10;;;;;;1924760;74;21015;-44
2022/01/20 13:18:12;;;;;;;8.63;2.87;;;2.60;60.70;;;;;;1924726;74;21027;-44
2022/01/20 13:20:50;;;;;;;4.75;2.52;;;2.70;60.50;;;;;;1924643;74;21140;-44
2022/01/20 13:25:47;;;;;;;3.25;2.17;;;2.70;61.90;;;;;;1924748;74;21039;-44
2022/01/20 13:28:18;;;;;;;3.75;2.17;;;2.80;61.30;;;;;;1924713;74;21066;-44
2022/01/20 13:30:47;;;;;;;5.05;3.02;;;2.80;62.30;;;;;;1924691;74;21105;-44
2022/01/20 13:33:19;;;;;;;4.62;2.30;;;2.80;63.20;;;;;;1924834;74;20999;-45
2022/01/20 13:35:50;;;;;;;5.78;3.00;;;2.80;61.40;;;;;;1924687;74;20991;-45
2022/01/20 13:38:20;;;;;;;6.05;2.20;;;2.80;62.30;;;;;;1924634;74;21619;-45
2022/01/20 13:40:49;;;;;;;12.47;6.97;;;2.80;60.40;;;;;;1924792;74;21022;-45
2022/01/20 13:46:07;;;;;;;10.35;4.08;;;2.70;63.30;;;;;;1924820;74;21082;-44
2022/01/20 13:48:36;;;;;;;11.33;4.62;;;2.70;63.70;;;;;;1924666;74;21019;-44
2022/01/20 13:51:06;;;;;;;9.30;4.35;;;2.80;63.80;;;;;;1924701;74;21096;-45
2022/01/20 13:53:39;;;;;;;3.12;1.77;;;2.70;62.00;;;;;;1924773;74;21022;-45
2022/01/20 13:56:10;;;;;;;9.03;2.95;;;2.70;62.80;;;;;;1924619;74;21043;-46
2022/01/20 13:58:39;;;;;;;6.65;2.42;;;2.60;62.30;;;;;;1924747;74;21081;-45
2022/01/20 14:01:10;;;;;;;6.40;2.20;;;2.50;63.80;;;;;;1924731;74;21100;-44
2022/01/20 14:03:41;;;;;;;9.93;3.22;;;2.50;63.90;;;;;;1915296;74;21059;-44
2022/01/20 14:06:10;;;;;;;19.50;5.62;;;2.40;63.70;;;;;;1905432;75;21019;-44
2022/01/20 14:08:40;;;;;;;11.10;3.02;;;2.40;65.10;;;;;;1905350;75;21028;-44
2022/01/20 14:11:09;;;;;;;7.78;2.65;;;2.40;64.90;;;;;;1905453;75;21024;-44
2022/01/20 14:13:38;;;;;;;6.97;3.05;;;2.40;65.10;;;;;;1905517;75;21042;-44
2022/01/20 14:16:08;;;;;;;13.35;3.22;;;2.40;64.70;;;;;;1905459;75;21019;-44